createdAt,value
2022-11-02T00:01:21.251Z,11.9
2022-11-02T00:03:22.457Z,12
2022-11-02T00:05:23.690Z,12
2022-11-02T00:07:28.198Z,12
2022-11-02T00:09:29.427Z,12
2022-11-02T00:13:31.934Z,12.3
2022-11-02T00:15:33.177Z,12.3
2022-11-02T00:17:34.416Z,12.3
2022-11-02T00:19:35.677Z,12.4
2022-11-02T00:23:41.467Z,12.6
2022-11-02T00:25:42.714Z,12.8
2022-11-02T00:27:43.953Z,12.8
2022-11-02T00:29:45.206Z,12.8
2022-11-02T00:31:46.475Z,13
2022-11-02T00:33:47.713Z,13
2022-11-02T00:35:52.235Z,13
2022-11-02T00:37:53.904Z,13
2022-11-02T00:39:55.173Z,13.1
2022-11-02T00:41:56.412Z,13
2022-11-02T00:43:57.659Z,13.1
2022-11-02T00:45:58.893Z,13.1
2022-11-02T00:48:00.127Z,13.1
2022-11-02T00:50:04.673Z,13.1
2022-11-02T00:52:05.902Z,13.1
2022-11-02T00:54:07.152Z,13.1
2022-11-02T00:59:11.886Z,13.1
2022-11-02T01:01:13.327Z,13.1
2022-11-02T01:03:17.630Z,13.1
2022-11-02T01:05:18.778Z,13.2
2022-11-02T01:07:20.005Z,13.1
2022-11-02T01:09:21.254Z,13.1
2022-11-02T01:11:22.500Z,13.1
2022-11-02T01:15:25.029Z,13
2022-11-02T01:19:30.772Z,13
2022-11-02T01:21:32.022Z,13
2022-11-02T01:23:33.264Z,13
2022-11-02T01:25:34.519Z,13
2022-11-02T01:27:35.758Z,13
2022-11-02T01:29:36.930Z,13
2022-11-02T01:33:42.689Z,13
2022-11-02T01:35:43.814Z,12.9
2022-11-02T01:37:45.043Z,12.9
2022-11-02T01:39:46.282Z,13
2022-11-02T01:41:47.553Z,12.9
2022-11-02T01:43:48.784Z,13
2022-11-02T01:45:53.315Z,12.3
2022-11-02T01:47:54.557Z,11.8
2022-11-02T01:49:55.787Z,11.5
2022-11-02T01:50:58.047Z,11.3
2022-11-02T01:57:01.778Z,11.2
2022-11-02T01:59:06.288Z,11.2
2022-11-02T02:01:07.701Z,11.2
2022-11-02T02:03:08.780Z,11.2
2022-11-02T02:09:12.485Z,11.2
2022-11-02T02:13:18.265Z,11.2
2022-11-02T02:19:21.988Z,10.9
2022-11-02T02:25:25.710Z,10.7
2022-11-02T02:27:30.202Z,10.4
2022-11-02T02:29:31.465Z,10.4
2022-11-02T02:31:32.714Z,10.4
2022-11-02T02:33:33.918Z,10.5
2022-11-02T02:35:35.192Z,10.5
2022-11-02T02:37:36.412Z,10.5
2022-11-02T02:39:37.650Z,10.5
2022-11-02T02:43:43.402Z,10.4
2022-11-02T02:45:44.662Z,10.5
2022-11-02T02:48:13.001Z,10.4
2022-11-02T02:50:14.268Z,10.4
2022-11-02T02:52:15.515Z,10.5
2022-11-02T02:54:20.030Z,10.4
2022-11-02T02:56:21.311Z,10.4
2022-11-02T02:58:22.533Z,10.5
2022-11-02T03:00:23.774Z,10.5
2022-11-02T03:02:25.208Z,10.5
2022-11-02T03:06:27.501Z,10.5
2022-11-02T03:12:34.455Z,10.6
2022-11-02T03:14:35.709Z,10.6
2022-11-02T03:16:36.940Z,10.6
2022-11-02T03:18:38.239Z,10.7
2022-11-02T03:20:39.444Z,10.7
2022-11-02T03:22:43.949Z,10.8
2022-11-02T03:24:45.180Z,10.8
2022-11-02T03:26:46.402Z,10.8
2022-11-02T03:28:47.668Z,10.8
2022-11-02T03:30:48.897Z,10.8
2022-11-02T03:32:50.123Z,10.8
2022-11-02T03:34:51.369Z,10.8
2022-11-02T03:36:55.943Z,10.8
2022-11-02T03:38:57.098Z,10.8
2022-11-02T03:40:58.344Z,10.8
2022-11-02T03:46:03.084Z,10.8
2022-11-02T03:50:08.819Z,10.8
2022-11-02T03:52:10.060Z,10.8
2022-11-02T03:54:11.305Z,10.8
2022-11-02T03:56:12.531Z,10.9
2022-11-02T03:58:13.768Z,10.9
2022-11-02T04:00:15.011Z,10.9
2022-11-02T04:02:16.353Z,10.9
2022-11-02T04:04:20.753Z,11
2022-11-02T04:06:21.980Z,11
2022-11-02T04:08:23.208Z,11
2022-11-02T04:10:24.441Z,11.1
2022-11-02T04:12:25.691Z,11.1
2022-11-02T04:14:26.927Z,11.2
2022-11-02T04:16:28.574Z,11.2
2022-11-02T04:18:32.707Z,11.3
2022-11-02T04:20:33.907Z,11.3
2022-11-02T04:26:37.626Z,11.4
2022-11-02T04:28:38.850Z,11.4
2022-11-02T04:30:40.094Z,11.5
2022-11-02T04:34:45.811Z,11.5
2022-11-02T04:36:47.054Z,11.6
2022-11-02T04:37:49.328Z,11.6
2022-11-02T04:39:50.557Z,11.6
2022-11-02T04:41:51.814Z,11.6
2022-11-02T04:43:53.050Z,11.7
2022-11-02T04:45:57.554Z,11.7
2022-11-02T04:47:58.794Z,11.7
2022-11-02T04:50:00.029Z,11.7
2022-11-02T04:52:01.283Z,11.7
2022-11-02T04:54:02.506Z,11.7
2022-11-02T04:56:03.759Z,11.8
2022-11-02T04:58:05.209Z,11.9
2022-11-02T05:00:09.497Z,11.9
2022-11-02T05:02:10.940Z,11.9
2022-11-02T05:04:11.983Z,11.9
2022-11-02T05:06:13.219Z,11.6
2022-11-02T05:08:14.454Z,11.5
2022-11-02T05:10:15.712Z,11.6
2022-11-02T05:12:16.946Z,11.7
2022-11-02T05:14:21.442Z,11.7
2022-11-02T05:16:22.675Z,11.8
2022-11-02T05:18:23.990Z,11.8
2022-11-02T05:20:25.154Z,11.9
2022-11-02T05:22:26.427Z,11.9
2022-11-02T05:24:27.679Z,12
2022-11-02T05:26:28.892Z,12.1
2022-11-02T05:28:33.408Z,12.1
2022-11-02T05:30:34.635Z,12.1
2022-11-02T05:32:35.865Z,12.1
2022-11-02T05:33:38.146Z,12.1
2022-11-02T05:37:40.631Z,12.1
2022-11-02T05:39:46.335Z,12.1
2022-11-02T05:41:47.868Z,12
2022-11-02T05:43:49.111Z,12
2022-11-02T05:45:50.371Z,11.9
2022-11-02T05:47:51.601Z,11.9
2022-11-02T05:49:52.853Z,11.8
2022-11-02T05:51:54.104Z,11.8
2022-11-02T05:53:55.329Z,11.8
2022-11-02T05:55:59.837Z,11.7
2022-11-02T05:58:01.077Z,11.7
2022-11-02T06:00:02.311Z,11.7
2022-11-02T06:02:03.645Z,11.7
2022-11-02T06:04:04.781Z,11.7
2022-11-02T06:06:06.022Z,11.7
2022-11-02T06:08:07.283Z,11.6
2022-11-02T06:10:11.784Z,11.6
2022-11-02T06:12:13.026Z,11.7
2022-11-02T06:14:14.252Z,11.6
2022-11-02T06:16:18.747Z,11.6
2022-11-02T06:18:16.733Z,11.6
2022-11-02T06:20:18.020Z,11.6
2022-11-02T06:22:19.222Z,11.6
2022-11-02T06:24:23.739Z,11.6
2022-11-02T06:26:24.975Z,11.6
2022-11-02T06:28:26.214Z,11.6
2022-11-02T06:30:52.594Z,11.7
2022-11-02T06:32:53.838Z,11.7
2022-11-02T06:34:55.079Z,11.7
2022-11-02T06:36:59.579Z,11.7
2022-11-02T06:39:00.825Z,11.7
2022-11-02T06:41:02.075Z,11.7
2022-11-02T06:43:16.142Z,11.7
2022-11-02T06:45:04.552Z,11.7
2022-11-02T06:47:05.838Z,11.7
2022-11-02T06:49:07.039Z,11.6
2022-11-02T06:51:11.546Z,11.6
2022-11-02T06:53:12.821Z,11.6
2022-11-02T06:55:14.067Z,11.5
2022-11-02T06:57:15.299Z,11.5
2022-11-02T06:59:16.534Z,11.5
2022-11-02T07:01:17.959Z,11.5
2022-11-02T07:03:19.018Z,11.5
2022-11-02T07:05:23.531Z,11.6
2022-11-02T07:07:24.962Z,11.5
2022-11-02T07:09:26.002Z,11.6
2022-11-02T07:11:27.241Z,11.6
2022-11-02T07:13:28.480Z,11.6
2022-11-02T07:15:29.727Z,11.6
2022-11-02T07:17:32.348Z,11.6
2022-11-02T07:19:35.484Z,11.7
2022-11-02T07:21:36.727Z,11.6
2022-11-02T07:23:37.963Z,11.7
2022-11-02T07:26:41.447Z,11.9
2022-11-02T07:32:48.456Z,11.9
2022-11-02T07:34:49.678Z,11.9
2022-11-02T07:36:50.905Z,11.9
2022-11-02T07:47:00.383Z,11.9
2022-11-02T07:49:01.625Z,11.9
2022-11-02T07:57:06.577Z,12.1
2022-11-02T07:59:07.828Z,12.1
2022-11-02T08:01:12.374Z,12.1
2022-11-02T08:03:13.687Z,12
2022-11-02T08:05:14.806Z,12
2022-11-02T08:07:16.018Z,11.9
2022-11-02T08:09:17.270Z,11.8
2022-11-02T08:11:18.511Z,11.8
2022-11-02T08:13:19.759Z,11.9
2022-11-02T08:15:24.267Z,12.1
2022-11-02T08:17:25.507Z,12.1
2022-11-02T08:19:26.745Z,12.1
2022-11-02T08:20:28.977Z,12.1
2022-11-02T08:22:30.228Z,12.1
2022-11-02T08:24:31.477Z,12.2
2022-11-02T08:26:32.721Z,12.2
2022-11-02T08:28:37.240Z,12.2
2022-11-02T08:30:38.471Z,12.2
2022-11-02T08:32:39.717Z,12.3
2022-11-02T08:34:40.942Z,12.4
2022-11-02T08:36:42.181Z,12.4
2022-11-02T08:38:43.411Z,12.5
2022-11-02T08:40:44.642Z,12.4
2022-11-02T08:42:49.175Z,12.6
2022-11-02T08:44:50.386Z,12.6
2022-11-02T08:46:51.655Z,12.5
2022-11-02T08:48:52.868Z,12.6
2022-11-02T08:50:54.107Z,12.6
2022-11-02T08:52:55.357Z,12.6
2022-11-02T08:54:56.570Z,12.7
2022-11-02T08:57:01.098Z,12.9
2022-11-02T08:59:02.362Z,12.9
2022-11-02T09:01:03.606Z,12.9
2022-11-02T09:03:04.962Z,12.9
2022-11-02T09:05:06.103Z,12.9
2022-11-02T09:07:07.328Z,12.9
2022-11-02T09:09:08.581Z,13
2022-11-02T09:15:15.595Z,15.6
2022-11-02T09:16:17.856Z,16.5
2022-11-02T09:18:19.108Z,17
2022-11-02T09:20:20.381Z,17.5
2022-11-02T09:22:21.625Z,17.3
2022-11-02T09:24:26.141Z,17
2022-11-02T09:26:27.273Z,17
2022-11-02T09:28:28.495Z,17.4
2022-11-02T09:30:29.725Z,16.8
2022-11-02T09:32:30.848Z,16.8
2022-11-02T09:34:32.000Z,18
2022-11-02T09:42:39.666Z,17.9
2022-11-02T09:44:40.784Z,18.9
2022-11-02T09:46:41.914Z,18.1
2022-11-02T09:56:50.689Z,17.6
2022-11-02T09:58:51.816Z,19
2022-11-02T10:00:53.666Z,18.8
2022-11-02T10:02:54.168Z,18.7
2022-11-02T10:04:55.196Z,17.6
2022-11-02T10:06:59.483Z,17.5
2022-11-02T10:09:00.621Z,17.5
2022-11-02T10:11:06.895Z,18
2022-11-02T10:13:29.755Z,18.7
2022-11-02T10:15:30.859Z,18.6
2022-11-02T10:17:31.989Z,17.2
2022-11-02T10:19:36.281Z,17.6
2022-11-02T10:21:37.412Z,17.6
2022-11-02T10:23:38.532Z,17.3
2022-11-02T10:25:39.639Z,18.1
2022-11-02T10:27:40.861Z,18
2022-11-02T10:31:43.011Z,18.3
2022-11-02T10:33:47.303Z,18.2
2022-11-02T10:36:12.476Z,18.3
2022-11-02T10:37:49.549Z,18.4
2022-11-02T10:39:50.655Z,18.4
2022-11-02T10:41:51.762Z,19.2
2022-11-02T10:43:52.891Z,18.6
2022-11-02T10:45:54.011Z,19.1
2022-11-02T10:47:58.324Z,19
2022-11-02T10:49:59.421Z,18.9
2022-11-02T10:52:00.544Z,18.9
2022-11-02T10:54:01.745Z,19.4
2022-11-02T10:56:02.767Z,19.6
2022-11-02T11:02:09.323Z,17.9
2022-11-02T11:07:13.619Z,19.1
2022-11-02T11:09:14.723Z,17.7
2022-11-02T11:11:15.856Z,15.9
2022-11-02T11:15:48.048Z,14.7
2022-11-02T11:19:39.743Z,14.6
2022-11-02T11:21:24.599Z,14.6
2022-11-02T11:23:25.728Z,14.6
2022-11-02T11:25:27.876Z,14.4
2022-11-02T11:27:27.948Z,14.4
2022-11-02T11:29:33.778Z,14.6
2022-11-02T11:31:34.880Z,14.5
2022-11-02T11:33:36.048Z,14.7
2022-11-02T11:35:37.121Z,15
2022-11-02T11:37:38.250Z,15.1
2022-11-02T11:39:39.395Z,14.8
2022-11-02T11:41:40.518Z,14.6
2022-11-02T11:43:44.802Z,14.8
2022-11-02T11:45:45.942Z,14.9
2022-11-02T11:47:47.049Z,15.2
2022-11-02T11:50:08.220Z,15.1
2022-11-02T11:51:49.301Z,15.1
2022-11-02T11:53:50.460Z,15
2022-11-02T11:55:51.600Z,15.1
2022-11-02T11:57:55.895Z,15.2
2022-11-02T11:59:57.004Z,15.2
2022-11-02T12:01:58.274Z,15.5
2022-11-02T12:03:00.361Z,15.6
2022-11-02T12:05:01.414Z,15.7
2022-11-02T12:07:02.542Z,15.6
2022-11-02T12:09:04.759Z,15.6
2022-11-02T12:11:07.960Z,15.6
2022-11-02T12:13:09.083Z,15.5
2022-11-02T12:15:10.230Z,15.3
2022-11-02T12:17:11.347Z,15.3
2022-11-02T12:19:12.456Z,15.2
2022-11-02T12:21:13.597Z,15.2
2022-11-02T12:25:19.020Z,15.3
2022-11-02T12:27:20.149Z,15.3
2022-11-02T12:29:21.245Z,15.4
2022-11-02T12:37:39.107Z,15.5
2022-11-02T12:39:30.029Z,15.8
2022-11-02T12:43:32.251Z,15.7
2022-11-02T12:45:36.449Z,15.6
2022-11-02T12:47:34.494Z,15.5
2022-11-02T12:49:36.240Z,15.4
2022-11-02T12:51:36.750Z,15.4
2022-11-02T12:53:41.046Z,15.5
2022-11-02T12:55:42.162Z,15.6
2022-11-02T12:57:43.292Z,15.5
2022-11-02T12:58:45.422Z,15.2
2022-11-02T13:00:46.638Z,15.2
2022-11-02T13:02:47.686Z,15.1
2022-11-02T13:04:48.791Z,15.1
2022-11-02T13:06:53.085Z,15.3
2022-11-02T13:10:55.465Z,15.2
2022-11-02T13:12:56.468Z,15.2
2022-11-02T13:14:57.587Z,15.1
2022-11-02T13:16:58.755Z,15
2022-11-02T13:23:05.516Z,15.2
2022-11-02T13:25:06.381Z,15.1
2022-11-02T13:27:14.702Z,15.1
2022-11-02T13:29:08.651Z,15.1
2022-11-02T13:31:12.719Z,15.1
2022-11-02T13:33:10.867Z,15
2022-11-02T13:35:15.187Z,14.9
2022-11-02T13:37:16.320Z,14.9
2022-11-02T13:39:17.451Z,15
2022-11-02T13:41:18.571Z,15
2022-11-02T13:43:19.712Z,15.1
2022-11-02T13:45:21.029Z,15
2022-11-02T13:49:26.277Z,14.8
2022-11-02T13:51:27.394Z,14.9
2022-11-02T13:53:28.549Z,15
2022-11-02T13:55:56.589Z,15.1
2022-11-02T13:57:57.699Z,15
2022-11-02T13:59:58.834Z,15
2022-11-02T14:02:03.280Z,14.9
2022-11-02T14:04:04.243Z,14.9
2022-11-02T14:06:05.388Z,14.9
2022-11-02T14:08:06.758Z,14.9
2022-11-02T14:10:07.687Z,14.9
2022-11-02T14:12:08.778Z,14.8
2022-11-02T14:14:09.918Z,14.8
2022-11-02T14:16:14.244Z,14.8
2022-11-02T14:18:15.374Z,14.8
2022-11-02T14:20:16.494Z,14.8
2022-11-02T14:22:17.625Z,14.9
2022-11-02T14:24:18.751Z,14.8
2022-11-02T14:28:21.020Z,14.7
2022-11-02T14:30:25.334Z,14.7
2022-11-02T14:32:26.483Z,14.7
2022-11-02T14:34:27.604Z,14.8
2022-11-02T14:36:28.740Z,14.7
2022-11-02T14:38:29.893Z,14.7
2022-11-02T14:40:31.004Z,14.6
2022-11-02T14:42:32.131Z,14.6
2022-11-02T14:44:36.446Z,14.5
2022-11-02T14:46:37.588Z,14.6
2022-11-02T14:48:38.717Z,14.6
2022-11-02T14:51:41.996Z,14.5
2022-11-02T14:53:43.164Z,14.5
2022-11-02T14:55:44.310Z,14.5
2022-11-02T14:57:48.624Z,14.4
2022-11-02T14:59:49.743Z,14.4
2022-11-02T15:01:50.883Z,14.4
2022-11-02T15:03:52.033Z,14.4
2022-11-02T15:05:53.147Z,14.4
2022-11-02T15:07:54.296Z,14.3
2022-11-02T15:09:55.470Z,14.3
2022-11-02T15:14:00.998Z,14.2
2022-11-02T15:16:02.166Z,14.1
2022-11-02T15:18:03.291Z,14.1
2022-11-02T15:20:04.441Z,14
2022-11-02T15:22:05.609Z,13.9
2022-11-02T15:24:07.946Z,13.9
2022-11-02T15:26:11.162Z,13.8
2022-11-02T15:28:12.282Z,13.8
2022-11-02T15:34:15.807Z,13.7
2022-11-02T15:36:17.049Z,13.6
2022-11-02T15:38:21.791Z,13.6
2022-11-02T15:40:22.697Z,13.5
2022-11-02T15:42:23.970Z,13.5
2022-11-02T15:44:25.213Z,13.5
2022-11-02T15:45:47.469Z,13.5
2022-11-02T15:47:28.585Z,13.5
2022-11-02T15:49:29.722Z,13.4
2022-11-02T15:51:30.875Z,13.4
2022-11-02T15:53:35.392Z,13.3
2022-11-02T15:55:36.644Z,13.3
2022-11-02T15:57:37.899Z,13.3
2022-11-02T15:59:39.009Z,13.2
2022-11-02T16:01:40.416Z,13.2
2022-11-02T16:03:41.482Z,13.2
2022-11-02T16:05:42.613Z,13.2
2022-11-02T16:08:05.211Z,13.1
2022-11-02T16:09:48.288Z,13.1
2022-11-02T16:11:49.567Z,13
2022-11-02T16:14:08.037Z,13
2022-11-02T16:15:52.020Z,13
2022-11-02T16:17:53.296Z,12.9
2022-11-02T16:19:54.535Z,12.9
2022-11-02T16:22:01.546Z,12.8
2022-11-02T16:24:00.311Z,12.8
2022-11-02T16:26:01.553Z,12.8
2022-11-02T16:28:03.151Z,12.7
2022-11-02T16:30:04.109Z,12.8
2022-11-02T16:32:05.287Z,12.7
2022-11-02T16:34:06.542Z,12.7
2022-11-02T16:36:11.040Z,12.6
2022-11-02T16:38:12.309Z,12.6
2022-11-02T16:40:13.555Z,12.6
2022-11-02T16:41:15.792Z,12.5
2022-11-02T16:43:17.054Z,12.5
2022-11-02T16:45:18.300Z,12.5
2022-11-02T16:47:19.559Z,12.4
2022-11-02T16:49:24.076Z,12.4
2022-11-02T16:51:25.363Z,12.4
2022-11-02T16:53:26.665Z,12.4
2022-11-02T16:55:27.898Z,12.3
2022-11-02T16:57:29.163Z,12.3
2022-11-02T16:59:30.411Z,12.2
2022-11-02T17:01:31.782Z,12.2
2022-11-02T17:03:36.193Z,12.2
2022-11-02T17:05:37.438Z,12.1
2022-11-02T17:07:38.710Z,12.1
2022-11-02T17:09:39.945Z,12.1
2022-11-02T17:11:41.202Z,12.1
2022-11-02T17:13:42.467Z,12.1
2022-11-02T17:15:43.721Z,12.1
2022-11-02T17:17:49.775Z,12
2022-11-02T17:19:50.966Z,12
2022-11-02T17:21:52.217Z,12
2022-11-02T17:23:53.440Z,12
2022-11-02T17:25:54.702Z,12
2022-11-02T17:27:55.930Z,12
2022-11-02T17:29:57.158Z,11.9
2022-11-02T17:32:01.698Z,12
2022-11-02T17:34:02.934Z,12
2022-11-02T17:36:04.208Z,12
2022-11-02T17:38:32.519Z,12
2022-11-02T17:40:33.786Z,12
2022-11-02T17:42:35.018Z,12.1
2022-11-02T17:44:39.531Z,12.1
2022-11-02T17:46:43.117Z,12.1
2022-11-02T17:48:42.014Z,12.1
2022-11-02T17:50:43.294Z,12.1
2022-11-02T17:52:44.536Z,12.1
2022-11-02T17:54:45.755Z,12.1
2022-11-02T17:56:47.013Z,12.1
2022-11-02T17:58:51.545Z,12.1
2022-11-02T18:00:52.862Z,12.1
2022-11-02T18:02:54.035Z,12.1
2022-11-02T18:04:55.285Z,12.1
2022-11-02T18:06:56.530Z,12.1
2022-11-02T18:17:05.986Z,11.9
2022-11-02T18:19:07.256Z,11.9
2022-11-02T18:21:08.528Z,11.9
2022-11-02T18:23:09.747Z,11.8
2022-11-02T18:25:11.090Z,11.8
2022-11-02T18:27:15.510Z,11.8
2022-11-02T18:29:16.767Z,11.8
2022-11-02T18:31:18.010Z,11.8
2022-11-02T18:32:20.261Z,11.8
2022-11-02T18:34:21.504Z,11.8
2022-11-02T18:36:22.765Z,11.9
2022-11-02T18:38:23.978Z,11.9
2022-11-02T18:40:34.275Z,11.9
2022-11-02T18:42:29.750Z,11.9
2022-11-02T18:44:30.996Z,11.9
2022-11-02T18:46:32.220Z,11.8
2022-11-02T18:48:33.472Z,11.9
2022-11-02T18:50:34.703Z,11.9
2022-11-02T18:52:35.956Z,12
2022-11-02T18:54:40.450Z,12
2022-11-02T18:56:41.722Z,11.9
2022-11-02T18:58:43.000Z,11.9
2022-11-02T19:00:44.287Z,11.9
2022-11-02T19:02:45.466Z,12
2022-11-02T19:06:48.126Z,12
2022-11-02T19:08:52.493Z,12.1
2022-11-02T19:10:53.736Z,12.1
2022-11-02T19:12:54.996Z,12.1
2022-11-02T19:14:56.272Z,12.2
2022-11-02T19:16:57.502Z,12.1
2022-11-02T19:18:58.758Z,12.2
2022-11-02T19:21:00.017Z,12.3
2022-11-02T19:23:04.619Z,12.3
2022-11-02T19:25:05.761Z,12.2
2022-11-02T19:27:07.106Z,12.3
2022-11-02T19:28:09.521Z,12.4
2022-11-02T19:30:10.523Z,12.5
2022-11-02T19:32:11.755Z,12.5
2022-11-02T19:34:13.000Z,12.5
2022-11-02T19:36:17.508Z,12.5
2022-11-02T19:40:19.981Z,12.5
2022-11-02T19:42:21.259Z,12.5
2022-11-02T19:46:23.739Z,12.5
2022-11-02T19:48:24.977Z,12.5
2022-11-02T19:52:30.771Z,12.5
2022-11-02T19:54:32.015Z,12.5
2022-11-02T19:56:33.265Z,12.5
2022-11-02T19:58:34.495Z,12.5
2022-11-02T20:02:37.233Z,12.5
2022-11-02T20:04:42.534Z,12.4
2022-11-02T20:06:42.779Z,12.4
2022-11-02T20:08:44.021Z,12.4
2022-11-02T20:10:45.269Z,12.4
2022-11-02T20:12:46.489Z,12.3
2022-11-02T20:14:47.732Z,12.3
2022-11-02T20:16:58.767Z,12.3
2022-11-02T20:18:53.501Z,12.3
2022-11-02T20:20:54.748Z,12.3
2022-11-02T20:22:55.986Z,12.3
2022-11-02T20:23:58.276Z,12.3
2022-11-02T20:25:59.524Z,12.3
2022-11-02T20:28:00.762Z,12.3
2022-11-02T20:30:02.018Z,12.2
2022-11-02T20:32:06.525Z,12.2
2022-11-02T20:34:07.759Z,12.2
2022-11-02T20:36:09.008Z,12.1
2022-11-02T20:38:10.267Z,12.2
2022-11-02T20:40:11.496Z,12.2
2022-11-02T20:42:12.737Z,12.2
2022-11-02T20:44:13.962Z,12.1
2022-11-02T20:46:37.090Z,12.1
2022-11-02T20:48:19.819Z,12.1
2022-11-02T20:50:25.673Z,12.1
2022-11-02T20:52:22.280Z,12.1
2022-11-02T20:54:23.479Z,12.1
2022-11-02T20:56:24.723Z,12.1
2022-11-02T20:58:25.995Z,12.1
2022-11-02T21:00:30.490Z,12
2022-11-02T21:02:31.862Z,12.1
2022-11-02T21:04:33.003Z,12.1
2022-11-02T21:06:34.264Z,12.1
2022-11-02T21:10:36.745Z,12.1
2022-11-02T21:12:38.022Z,12.1
2022-11-02T21:14:42.554Z,12.1
2022-11-02T21:16:43.797Z,12.1
2022-11-02T21:18:45.075Z,12.1
2022-11-02T21:21:13.346Z,12.1
2022-11-02T21:23:14.492Z,12.1
2022-11-02T21:25:15.731Z,12.2
2022-11-02T21:27:21.623Z,12.1
2022-11-02T21:29:21.551Z,12.1
2022-11-02T21:31:22.781Z,12.1
2022-11-02T21:33:24.084Z,12.1
2022-11-02T21:35:25.318Z,12.1
2022-11-02T21:37:26.579Z,12.2
2022-11-02T21:39:27.824Z,12.2
2022-11-02T21:43:33.616Z,12.2
2022-11-02T21:45:37.715Z,12.2
2022-11-02T21:47:36.107Z,12.2
2022-11-02T21:49:37.353Z,12.1
2022-11-02T21:51:38.626Z,12.1
2022-11-02T21:53:39.846Z,12.2
2022-11-02T21:55:44.358Z,12.2
2022-11-02T21:57:45.620Z,12.2
2022-11-02T21:59:46.895Z,12.2
2022-11-02T22:01:48.408Z,12.2
2022-11-02T22:03:49.385Z,12.2
2022-11-02T22:05:50.616Z,12.1
2022-11-02T22:07:51.878Z,12.2
2022-11-02T22:09:56.374Z,12.1
2022-11-02T22:11:57.631Z,12.2
2022-11-02T22:13:58.889Z,12.2
2022-11-02T22:15:01.118Z,12.2
2022-11-02T22:17:04.722Z,12.1
2022-11-02T22:19:03.585Z,12.2
2022-11-02T22:21:04.846Z,12.1
2022-11-02T22:23:09.224Z,12.1
2022-11-02T22:25:10.465Z,12.1
2022-11-02T22:27:11.694Z,12
2022-11-02T22:29:12.935Z,12.1
2022-11-02T22:31:14.173Z,12.1
2022-11-02T22:33:15.400Z,12.1
2022-11-02T22:35:16.643Z,12.1
2022-11-02T22:37:21.152Z,12
2022-11-02T22:39:22.414Z,12
2022-11-02T22:41:23.650Z,12
2022-11-02T22:43:24.888Z,12
2022-11-02T22:45:26.150Z,12
2022-11-02T22:47:27.397Z,12
2022-11-02T22:49:28.624Z,12
2022-11-02T22:51:33.148Z,12
2022-11-02T22:53:34.418Z,12
2022-11-02T22:55:35.634Z,12
2022-11-02T22:57:36.885Z,12
2022-11-02T23:03:40.604Z,11.9
2022-11-02T23:05:45.137Z,12
2022-11-02T23:07:47.926Z,12
2022-11-02T23:09:49.132Z,11.9
2022-11-02T23:10:53.623Z,11.9
2022-11-02T23:12:52.625Z,11.9
2022-11-02T23:14:53.867Z,11.9
2022-11-02T23:16:55.091Z,11.9
2022-11-02T23:18:59.608Z,11.9
2022-11-02T23:21:00.872Z,11.9
2022-11-02T23:23:02.118Z,11.9
2022-11-02T23:25:03.353Z,11.9
2022-11-02T23:27:04.748Z,11.9
2022-11-02T23:29:05.862Z,11.8
2022-11-02T23:31:07.094Z,11.8
2022-11-02T23:33:11.608Z,11.8
2022-11-02T23:35:12.848Z,11.7
2022-11-02T23:37:14.087Z,11.8
2022-11-02T23:39:15.316Z,11.8
2022-11-02T23:41:16.561Z,11.8
2022-11-02T23:43:17.790Z,11.7
2022-11-02T23:47:23.543Z,11.7
2022-11-02T23:49:24.786Z,11.7
2022-11-02T23:53:27.275Z,11.7
2022-11-02T23:55:28.524Z,11.6
2022-11-02T23:57:29.752Z,11.7
2022-11-02T23:59:30.996Z,11.6
